createdAt,value
2018-07-30T00:02:44.154Z,24.80
2018-07-30T00:07:37.585Z,24.80
2018-07-30T00:12:30.948Z,24.90
2018-07-30T00:22:17.621Z,24.90
2018-07-30T00:27:10.963Z,24.80
2018-07-30T00:32:04.355Z,24.70
2018-07-30T00:41:50.936Z,24.40
2018-07-30T00:46:44.296Z,24.20
2018-07-30T00:51:38.106Z,23.90
2018-07-30T00:56:31.907Z,23.90
2018-07-30T01:01:25.321Z,23.80
2018-07-30T01:06:18.639Z,23.50
2018-07-30T01:11:13.048Z,23.40
2018-07-30T01:16:06.438Z,23.30
2018-07-30T01:21:01.707Z,23.10
2018-07-30T01:30:48.794Z,22.80
2018-07-30T01:35:44.090Z,22.70
2018-07-30T01:45:30.658Z,22.50
2018-07-30T01:50:24.011Z,22.40
2018-07-30T01:55:17.477Z,22.20
2018-07-30T02:00:10.956Z,22.10
2018-07-30T02:05:06.250Z,22.10
2018-07-30T02:10:01.730Z,22.00
2018-07-30T02:19:51.310Z,22.00
2018-07-30T02:24:46.022Z,21.90
2018-07-30T02:29:40.335Z,21.80
2018-07-30T02:34:33.752Z,21.80
2018-07-30T02:39:27.133Z,21.80
2018-07-30T02:44:21.767Z,21.80
2018-07-30T02:49:16.740Z,21.80
2018-07-30T02:54:10.228Z,21.70
2018-07-30T02:59:03.578Z,21.60
2018-07-30T03:03:57.163Z,21.60
2018-07-30T03:08:50.525Z,21.50
2018-07-30T03:13:45.509Z,21.40
2018-07-30T03:18:39.938Z,21.30
2018-07-30T03:23:33.370Z,21.20
2018-07-30T03:28:26.728Z,21.20
2018-07-30T03:43:06.595Z,20.80
2018-07-30T03:47:59.990Z,20.70
2018-07-30T03:52:53.339Z,20.50
2018-07-30T03:57:46.710Z,20.40
2018-07-30T04:02:40.953Z,20.40
2018-07-30T04:07:34.350Z,20.40
2018-07-30T04:12:27.874Z,20.30
2018-07-30T04:17:21.278Z,20.30
2018-07-30T04:22:14.663Z,20.30
2018-07-30T04:27:07.978Z,20.40
2018-07-30T04:36:54.804Z,20.50
2018-07-30T04:41:48.186Z,20.60
2018-07-30T04:46:42.187Z,20.80
2018-07-30T04:51:36.500Z,21.00
2018-07-30T05:01:24.500Z,21.00
2018-07-30T05:06:18.463Z,21.00
2018-07-30T05:11:12.178Z,21.10
2018-07-30T05:16:05.682Z,21.40
2018-07-30T05:20:59.227Z,23.00
2018-07-30T05:25:52.658Z,25.10
2018-07-30T05:30:46.501Z,25.90
2018-07-30T05:35:40.402Z,26.80
2018-07-30T05:40:33.782Z,27.80
2018-07-30T05:45:27.147Z,28.40
2018-07-30T05:50:20.534Z,29.40
2018-07-30T05:55:13.918Z,29.50
2018-07-30T06:00:07.412Z,30.80
2018-07-30T06:05:00.828Z,30.80
2018-07-30T06:09:54.216Z,30.90
2018-07-30T06:14:47.616Z,31.30
2018-07-30T06:19:40.963Z,32.50
2018-07-30T06:24:40.674Z,33.70
2018-07-30T06:29:34.078Z,34.70
2018-07-30T06:34:27.448Z,35.50
2018-07-30T06:39:20.812Z,36.20
2018-07-30T06:44:15.044Z,34.80
2018-07-30T06:54:02.619Z,32.90
2018-07-30T07:03:49.225Z,32.50
2018-07-30T07:08:42.589Z,32.30
2018-07-30T07:13:35.917Z,32.30
2018-07-30T07:28:15.738Z,35.70
2018-07-30T07:38:03.022Z,35.20
2018-07-30T07:42:56.387Z,36.60
2018-07-30T07:52:43.028Z,35.30
2018-07-30T07:57:36.384Z,36.30
2018-07-30T08:02:30.351Z,37.10
2018-07-30T08:07:23.705Z,36.50
2018-07-30T08:17:19.430Z,35.50
2018-07-30T08:22:12.890Z,36.00
2018-07-30T08:27:06.280Z,35.00
2018-07-30T08:32:02.138Z,35.40
2018-07-30T08:36:55.539Z,35.90
2018-07-30T08:41:48.954Z,37.80
2018-07-30T08:46:42.348Z,38.00
2018-07-30T08:51:35.764Z,36.60
2018-07-30T08:56:29.936Z,35.70
2018-07-30T09:01:23.237Z,35.60
2018-07-30T09:06:16.575Z,35.40
2018-07-30T09:11:09.901Z,36.20
2018-07-30T09:16:03.636Z,36.70
2018-07-30T09:20:57.024Z,38.10
2018-07-30T09:25:50.399Z,40.20
2018-07-30T09:30:45.243Z,39.30
2018-07-30T09:35:39.338Z,39.60
2018-07-30T09:40:32.719Z,40.10
2018-07-30T09:45:26.224Z,38.30
2018-07-30T09:50:19.623Z,38.40
2018-07-30T09:55:13.086Z,39.20
2018-07-30T10:00:08.413Z,39.70
2018-07-30T10:05:01.826Z,40.20
2018-07-30T10:09:55.188Z,37.20
2018-07-30T10:14:48.599Z,36.60
2018-07-30T10:29:28.864Z,36.80
2018-07-30T10:34:22.510Z,36.30
2018-07-30T10:39:15.948Z,36.00
2018-07-30T10:44:11.074Z,35.80
2018-07-30T10:49:04.473Z,35.90
2018-07-30T10:53:57.853Z,35.10
2018-07-30T10:58:51.218Z,34.80
2018-07-30T11:08:38.234Z,34.50
2018-07-30T11:13:31.591Z,33.90
2018-07-30T11:18:24.993Z,33.30
2018-07-30T11:23:18.370Z,33.00
2018-07-30T11:28:11.780Z,33.30
2018-07-30T11:33:05.448Z,33.70
2018-07-30T11:37:58.820Z,33.70
2018-07-30T11:42:52.200Z,33.80
2018-07-30T11:47:45.582Z,34.60
2018-07-30T11:52:39.025Z,34.10
2018-07-30T11:57:32.403Z,33.90
2018-07-30T12:02:25.875Z,34.80
2018-07-30T12:12:12.642Z,35.10
2018-07-30T12:17:06.264Z,35.40
2018-07-30T12:21:59.653Z,35.10
2018-07-30T12:26:53.045Z,35.70
2018-07-30T12:31:47.454Z,33.90
2018-07-30T12:36:40.880Z,35.40
2018-07-30T12:41:34.237Z,35.80
2018-07-30T12:51:21.734Z,36.10
2018-07-30T12:56:15.110Z,36.50
2018-07-30T13:01:08.546Z,36.50
2018-07-30T13:10:55.210Z,36.30
2018-07-30T13:20:42.427Z,37.10
2018-07-30T13:25:36.129Z,36.50
2018-07-30T13:30:30.682Z,35.20
2018-07-30T13:35:24.057Z,35.20
2018-07-30T13:40:18.683Z,35.10
2018-07-30T13:45:13.099Z,35.00
2018-07-30T13:50:08.270Z,34.90
2018-07-30T13:55:01.944Z,35.10
2018-07-30T14:04:48.590Z,35.80
2018-07-30T14:09:42.439Z,36.20
2018-07-30T14:14:36.333Z,35.40
2018-07-30T14:19:29.921Z,35.80
2018-07-30T14:24:23.343Z,35.70
2018-07-30T14:39:05.377Z,38.10
2018-07-30T14:43:58.759Z,37.80
2018-07-30T14:48:52.165Z,37.20
2018-07-30T14:58:38.788Z,37.20
2018-07-30T15:03:32.217Z,37.20
2018-07-30T15:08:25.633Z,36.90
2018-07-30T15:13:19.291Z,36.50
2018-07-30T15:18:13.628Z,36.10
2018-07-30T15:23:07.056Z,35.80
2018-07-30T15:28:00.464Z,35.60
2018-07-30T15:32:53.818Z,35.60
2018-07-30T15:37:47.186Z,35.90
2018-07-30T15:42:40.542Z,36.40
2018-07-30T15:47:33.898Z,37.10
2018-07-30T15:52:27.298Z,37.20
2018-07-30T15:57:20.766Z,36.80
2018-07-30T16:02:14.123Z,36.50
2018-07-30T16:07:07.523Z,36.00
2018-07-30T16:12:00.927Z,36.10
2018-07-30T16:16:54.280Z,36.20
2018-07-30T16:21:47.680Z,36.00
2018-07-30T16:36:27.577Z,35.60
2018-07-30T16:41:20.965Z,35.60
2018-07-30T16:46:14.965Z,35.40
2018-07-30T16:56:01.564Z,34.80
2018-07-30T17:00:54.954Z,34.80
2018-07-30T17:05:48.342Z,34.70
2018-07-30T17:10:41.791Z,34.80
2018-07-30T17:15:35.215Z,34.90
2018-07-30T17:20:28.588Z,34.90
2018-07-30T17:25:21.980Z,34.80
2018-07-30T17:30:15.918Z,34.50
2018-07-30T17:35:09.346Z,34.10
2018-07-30T17:40:02.884Z,33.90
2018-07-30T17:44:56.279Z,33.80
2018-07-30T17:49:49.670Z,33.60
2018-07-30T17:54:43.338Z,33.40
2018-07-30T17:59:36.739Z,33.20
2018-07-30T18:04:30.144Z,33.00
2018-07-30T18:14:16.829Z,32.70
2018-07-30T18:19:10.280Z,32.50
2018-07-30T18:24:03.705Z,32.30
2018-07-30T18:28:57.164Z,32.10
2018-07-30T18:33:50.540Z,32.00
2018-07-30T18:38:43.924Z,31.70
2018-07-30T18:43:37.295Z,31.60
2018-07-30T18:48:30.648Z,31.40
2018-07-30T18:53:24.014Z,31.20
2018-07-30T18:58:17.459Z,31.00
2018-07-30T19:03:10.878Z,30.70
2018-07-30T19:12:57.587Z,30.20
2018-07-30T19:17:51.073Z,30.00
2018-07-30T19:22:44.476Z,29.80
2018-07-30T19:27:37.831Z,29.50
2018-07-30T19:32:31.275Z,29.30
2018-07-30T19:37:24.616Z,29.00
2018-07-30T19:47:11.268Z,28.60
2018-07-30T19:56:57.887Z,28.40
2018-07-30T20:01:51.861Z,28.30
2018-07-30T20:06:45.224Z,28.20
2018-07-30T20:11:38.646Z,28.00
2018-07-30T20:16:32.042Z,27.90
2018-07-30T20:21:25.406Z,27.80
2018-07-30T20:26:18.766Z,27.70
2018-07-30T20:31:16.680Z,27.60
2018-07-30T20:41:03.317Z,27.40
2018-07-30T20:45:56.705Z,27.30
2018-07-30T20:50:50.094Z,27.10
2018-07-30T20:55:43.463Z,27.00
2018-07-30T21:00:36.812Z,26.90
2018-07-30T21:05:37.659Z,26.70
2018-07-30T21:10:31.010Z,26.60
2018-07-30T21:15:24.427Z,26.50
2018-07-30T21:20:17.823Z,26.40
2018-07-30T21:25:11.200Z,26.30
2018-07-30T21:30:06.222Z,26.20
2018-07-30T21:39:53.232Z,26.00
2018-07-30T21:44:46.682Z,26.00
2018-07-30T21:49:40.388Z,25.90
2018-07-30T21:54:33.775Z,25.90
2018-07-30T21:59:27.127Z,25.70
2018-07-30T22:04:20.812Z,25.60
2018-07-30T22:09:14.189Z,25.60
2018-07-30T22:14:07.620Z,25.60
2018-07-30T22:19:01.705Z,25.60
2018-07-30T22:23:55.186Z,25.60
2018-07-30T22:28:48.542Z,25.50
2018-07-30T22:33:41.928Z,25.60
2018-07-30T22:38:35.339Z,25.70
2018-07-30T22:48:23.243Z,25.50
2018-07-30T22:58:09.988Z,25.30
2018-07-30T23:07:56.649Z,25.10
2018-07-30T23:17:43.226Z,24.90
2018-07-30T23:22:36.593Z,24.90
2018-07-30T23:27:29.977Z,24.80
2018-07-30T23:32:23.397Z,24.80
2018-07-30T23:37:16.828Z,24.70
2018-07-30T23:42:10.664Z,24.60
2018-07-30T23:47:04.026Z,24.50
2018-07-30T23:51:57.382Z,24.40
2018-07-30T23:56:50.842Z,24.30
